ンジャメナ の空港の天気 - METARとTAF

ンジャメナ国際空港 ( FTTJ / NDJ ) - チャド ンジャメナ
飛行場実況気象(Metar)
観測時間10/18 04:00 WAT (10/18 03:00 UTC)
風向・風速北北西 1m/s
視程10km以上
天気現象
なし
気温21℃
湿度78%
気圧1009hPa
METARFTTJ 180300Z 33002KT CAVOK 21/17 Q1009 NOSIG
過去の天気等 Google飛行場航空写真 Wunderground天気予報

過去48時間のMETAR

飛行場予報(TAF)
発表時間: 10/18 00:00 WAT (10/17 23:00 UTC)
予報対象時間: 18日1時 WAT ~ 19日7時 WAT
風向・風速東北東 4m/s
視程10km以上
なし
18日5時 WAT ~ 18日10時 WAT に一時的に
視程3000m
天気現象煙霧
18日18時 WAT ~ 18日21時 WAT に一時的に
視程3000m
天気現象煙霧
TAF FTTJ 172300Z 1800/1906 06008KT CAVOK
TEMPO 1804/1809 3000 HZ
TEMPO 1817/1820 3000 HZ